Time;durP1;ratioP1;P1;durP2;ratioP2;P2;SDS_P1;SDS_P2;PMS_P1;PMS_P2;Temp;Humidity;BMP_temperature;BMP_pressure;BME280_temperature;BME280_humidity;BME280_pressure;Samples;Min_cycle;Max_cycle;Signal;HPM_P1;HPM_P2
2021/08/07 00:02:12;;;;;;;3.67;0.93;;;;;;;;;;4981261;28;20039;-53
2021/08/07 00:04:39;;;;;;;5.68;1.27;;;;;;;;;;4993062;28;20288;-50
2021/08/07 00:07:06;;;;;;;3.85;1.10;;;;;;;;;;5003894;28;20070;-52
2021/08/07 00:09:33;;;;;;;4.47;1.02;;;;;;;;;;4986592;28;20113;-50
2021/08/07 00:11:59;;;;;;;5.72;1.55;;;;;;;;;;4984581;28;20043;-51
2021/08/07 00:14:26;;;;;;;7.65;1.52;;;;;;;;;;4982098;28;20050;-53
2021/08/07 00:16:54;;;;;;;8.07;1.55;;;;;;;;;;4987705;28;20042;-51
2021/08/07 00:19:20;;;;;;;2.13;0.80;;;;;;;;;;5006002;28;20054;-52
2021/08/07 00:21:48;;;;;;;6.55;1.20;;;;;;;;;;5003829;28;20050;-51
2021/08/07 00:24:15;;;;;;;7.37;1.50;;;;;;;;;;4995201;28;20050;-50
2021/08/07 00:26:41;;;;;;;4.40;1.30;;;;;;;;;;4986053;28;20074;-50
2021/08/07 00:29:08;;;;;;;3.95;1.10;;;;;;;;;;4981242;28;20050;-53
2021/08/07 00:31:34;;;;;;;6.43;1.40;;;;;;;;;;4984280;28;20124;-50
2021/08/07 00:34:02;;;;;;;5.65;1.42;;;;;;;;;;4981036;28;20122;-53
2021/08/07 00:36:28;;;;;;;5.65;1.10;;;;;;;;;;4984896;28;20046;-54
2021/08/07 00:38:55;;;;;;;5.15;1.35;;;;;;;;;;4986781;28;20050;-53
2021/08/07 00:41:21;;;;;;;4.78;1.35;;;;;;;;;;5008305;28;20042;-50
2021/08/07 00:43:48;;;;;;;5.53;1.25;;;;;;;;;;5005342;28;20057;-53
2021/08/07 00:46:14;;;;;;;10.50;1.40;;;;;;;;;;4986563;28;20136;-53
2021/08/07 00:48:41;;;;;;;8.90;1.38;;;;;;;;;;4983407;28;20035;-53
2021/08/07 00:51:09;;;;;;;6.57;1.27;;;;;;;;;;4981800;28;20112;-50
2021/08/07 00:53:36;;;;;;;3.67;1.20;;;;;;;;;;4984646;28;20043;-54
2021/08/07 00:56:03;;;;;;;3.70;1.23;;;;;;;;;;4991766;28;20038;-50
2021/08/07 00:58:29;;;;;;;5.07;1.30;;;;;;;;;;5007205;28;20049;-51
2021/08/07 01:00:56;;;;;;;6.45;1.30;;;;;;;;;;5016850;28;20046;-48
2021/08/07 01:03:26;;;;;;;5.45;1.27;;;;;;;;;;5022632;28;20173;-47
2021/08/07 01:05:58;;;;;;;7.90;1.70;;;;;;;;;;4995388;28;20035;-50
2021/08/07 01:08:27;;;;;;;4.40;1.30;;;;;;;;;;4985654;28;20050;-50
2021/08/07 01:10:54;;;;;;;;;;;;;;;;;;4982035;28;20050;-51
2021/08/07 01:13:22;;;;;;;4.18;1.10;;;;;;;;;;4998618;28;19917;-49
2021/08/07 01:15:51;;;;;;;5.32;1.30;;;;;;;;;;4979533;28;20054;-51
2021/08/07 01:18:19;;;;;;;4.88;1.30;;;;;;;;;;4982124;28;20054;-47
2021/08/07 01:20:48;;;;;;;8.90;1.52;;;;;;;;;;4976285;28;20042;-51
2021/08/07 01:23:23;;;;;;;6.25;1.35;;;;;;;;;;5001453;28;20099;-52
2021/08/07 01:25:54;;;;;;;9.63;1.60;;;;;;;;;;5003196;28;20042;-50
2021/08/07 01:28:23;;;;;;;9.40;1.67;;;;;;;;;;4999264;28;20524;-50
2021/08/07 01:30:49;;;;;;;;;;;;;;;;;;5021217;28;20045;-51
2021/08/07 01:33:16;;;;;;;5.85;1.40;;;;;;;;;;4997747;28;19985;-52
2021/08/07 01:35:43;;;;;;;8.98;1.40;;;;;;;;;;4982141;28;20035;-52
2021/08/07 01:38:10;;;;;;;5.75;1.70;;;;;;;;;;4994398;28;20049;-52
2021/08/07 01:40:36;;;;;;;6.82;1.40;;;;;;;;;;4997848;28;20058;-51
2021/08/07 01:43:03;;;;;;;11.70;1.88;;;;;;;;;;4991355;28;20106;-52
2021/08/07 01:45:31;;;;;;;7.78;1.65;;;;;;;;;;5000744;28;20050;-52
2021/08/07 01:48:01;;;;;;;7.03;1.48;;;;;;;;;;4997771;28;20042;-51
2021/08/07 01:50:29;;;;;;;7.47;1.45;;;;;;;;;;5002418;28;20038;-52
2021/08/07 01:52:58;;;;;;;11.38;1.90;;;;;;;;;;4991108;28;20058;-53
2021/08/07 01:55:28;;;;;;;6.03;1.30;;;;;;;;;;4983345;28;20054;-51
2021/08/07 01:57:56;;;;;;;7.78;1.60;;;;;;;;;;4986562;28;20069;-51
2021/08/07 02:00:24;;;;;;;5.68;1.50;;;;;;;;;;5001207;28;20098;-49
2021/08/07 02:02:52;;;;;;;5.38;1.52;;;;;;;;;;4982555;28;20066;-51
2021/08/07 02:05:19;;;;;;;9.15;1.60;;;;;;;;;;5002252;28;20050;-52
2021/08/07 02:07:48;;;;;;;4.50;1.33;;;;;;;;;;5015347;28;20053;-50
2021/08/07 02:10:15;;;;;;;6.50;1.65;;;;;;;;;;4999108;28;20062;-49
2021/08/07 02:12:41;;;;;;;6.00;1.50;;;;;;;;;;4981893;28;20038;-51
2021/08/07 02:15:08;;;;;;;8.07;1.40;;;;;;;;;;4998082;28;20042;-51
2021/08/07 02:17:39;;;;;;;4.70;1.45;;;;;;;;;;5002516;28;20042;-52
2021/08/07 02:20:08;;;;;;;3.67;1.38;;;;;;;;;;4984578;28;20097;-48
2021/08/07 02:22:39;;;;;;;3.67;1.42;;;;;;;;;;4998636;28;20038;-51
2021/08/07 02:25:07;;;;;;;6.50;1.63;;;;;;;;;;4995783;28;20053;-49
2021/08/07 02:27:34;;;;;;;5.63;1.88;;;;;;;;;;5003168;28;20110;-51
2021/08/07 02:30:01;;;;;;;9.80;1.63;;;;;;;;;;4997653;28;20050;-52
2021/08/07 02:32:28;;;;;;;9.35;1.42;;;;;;;;;;5018880;28;20104;-51
2021/08/07 02:34:55;;;;;;;5.10;1.50;;;;;;;;;;5000861;28;20050;-47
2021/08/07 02:37:24;;;;;;;9.07;3.08;;;;;;;;;;5004578;28;20038;-48
2021/08/07 02:39:51;;;;;;;8.32;3.10;;;;;;;;;;5001599;28;20057;-51
2021/08/07 02:42:17;;;;;;;8.48;3.75;;;;;;;;;;4981464;28;20053;-49
2021/08/07 02:44:44;;;;;;;10.48;3.47;;;;;;;;;;4985444;28;20045;-51
2021/08/07 02:47:11;;;;;;;11.20;3.15;;;;;;;;;;5018773;28;20034;-51
2021/08/07 02:49:38;;;;;;;9.85;3.42;;;;;;;;;;5012985;28;20045;-53
2021/08/07 02:52:05;;;;;;;7.95;3.80;;;;;;;;;;4984800;28;20046;-51
2021/08/07 02:54:33;;;;;;;11.32;5.10;;;;;;;;;;4978717;28;20099;-52
2021/08/07 02:56:59;;;;;;;9.27;4.85;;;;;;;;;;4999157;28;20042;-52
2021/08/07 02:59:26;;;;;;;11.65;5.18;;;;;;;;;;4984516;28;20050;-49
2021/08/07 03:01:53;;;;;;;16.98;4.25;;;;;;;;;;4979669;28;20038;-49
2021/08/07 03:04:20;;;;;;;10.68;3.53;;;;;;;;;;4981946;28;20053;-53
2021/08/07 03:06:46;;;;;;;8.63;3.25;;;;;;;;;;4979645;28;20043;-50
2021/08/07 03:09:13;;;;;;;9.15;3.08;;;;;;;;;;4984085;28;20039;-51
2021/08/07 03:11:41;;;;;;;9.18;2.60;;;;;;;;;;4979362;28;20050;-50
2021/08/07 03:14:10;;;;;;;6.90;2.40;;;;;;;;;;4980503;28;20043;-48
2021/08/07 03:16:36;;;;;;;10.82;2.72;;;;;;;;;;4997993;28;20038;-51
2021/08/07 03:19:02;;;;;;;7.82;2.30;;;;;;;;;;4989690;28;20051;-51
2021/08/07 03:21:29;;;;;;;12.55;2.42;;;;;;;;;;4984236;28;20047;-48
2021/08/07 03:23:56;;;;;;;7.97;2.22;;;;;;;;;;4983652;28;20050;-50
2021/08/07 03:26:23;;;;;;;5.63;2.20;;;;;;;;;;4978023;28;20043;-48
2021/08/07 03:28:51;;;;;;;6.07;2.20;;;;;;;;;;4982460;28;20034;-48
2021/08/07 03:31:17;;;;;;;9.60;2.13;;;;;;;;;;4981534;28;20050;-50
2021/08/07 03:33:44;;;;;;;7.57;2.20;;;;;;;;;;5016426;28;20046;-52
2021/08/07 03:36:12;;;;;;;6.18;2.30;;;;;;;;;;5014023;28;20054;-49
2021/08/07 03:38:38;;;;;;;9.18;1.75;;;;;;;;;;5000596;28;20057;-50
2021/08/07 03:41:05;;;;;;;6.50;1.90;;;;;;;;;;5019319;28;20038;-50
2021/08/07 03:43:31;;;;;;;6.65;2.10;;;;;;;;;;4999519;28;20092;-51
2021/08/07 03:45:59;;;;;;;5.13;1.95;;;;;;;;;;5004353;28;20118;-52
2021/08/07 03:48:25;;;;;;;6.45;1.80;;;;;;;;;;4970399;28;20042;-52
2021/08/07 03:50:52;;;;;;;5.50;2.00;;;;;;;;;;5000598;28;20046;-49
2021/08/07 03:53:19;;;;;;;8.73;2.40;;;;;;;;;;4998917;28;20046;-48
2021/08/07 03:55:45;;;;;;;5.20;1.90;;;;;;;;;;5019918;28;20218;-47
2021/08/07 03:58:11;;;;;;;6.60;1.90;;;;;;;;;;4999254;28;20046;-48
2021/08/07 04:00:38;;;;;;;4.63;1.85;;;;;;;;;;5003799;28;20034;-49
2021/08/07 04:03:06;;;;;;;6.78;1.75;;;;;;;;;;4969746;28;20042;-49
2021/08/07 04:05:32;;;;;;;9.50;2.10;;;;;;;;;;4985959;28;20038;-47
2021/08/07 04:08:02;;;;;;;9.32;2.38;;;;;;;;;;4988812;28;20062;-50
2021/08/07 04:10:29;;;;;;;5.65;1.98;;;;;;;;;;4995780;28;20050;-48
2021/08/07 04:12:55;;;;;;;6.28;2.20;;;;;;;;;;4998841;28;20046;-52
2021/08/07 04:15:22;;;;;;;10.48;2.30;;;;;;;;;;5019265;28;20046;-53
2021/08/07 04:17:48;;;;;;;8.90;2.30;;;;;;;;;;5000211;28;20049;-51
2021/08/07 04:20:16;;;;;;;7.65;3.42;;;;;;;;;;4983370;28;20047;-49
2021/08/07 04:22:43;;;;;;;11.18;4.63;;;;;;;;;;4999311;28;20039;-50
2021/08/07 04:25:10;;;;;;;11.55;4.68;;;;;;;;;;4979497;28;20034;-50
2021/08/07 04:27:36;;;;;;;9.43;4.00;;;;;;;;;;4983308;28;20042;-49
2021/08/07 04:30:03;;;;;;;15.88;4.10;;;;;;;;;;4996348;28;20050;-50
2021/08/07 04:32:30;;;;;;;9.82;3.67;;;;;;;;;;5003593;28;20034;-48
2021/08/07 04:34:56;;;;;;;9.32;3.60;;;;;;;;;;4986110;28;20172;-48
2021/08/07 04:37:24;;;;;;;9.73;3.45;;;;;;;;;;4984921;28;20043;-50
2021/08/07 04:39:51;;;;;;;8.18;3.33;;;;;;;;;;4998123;28;20046;-51
2021/08/07 04:42:17;;;;;;;10.10;2.63;;;;;;;;;;4984671;28;20085;-49
2021/08/07 04:44:44;;;;;;;9.55;3.40;;;;;;;;;;4981709;28;20042;-48
2021/08/07 04:47:10;;;;;;;12.00;2.88;;;;;;;;;;5000319;28;20038;-49
2021/08/07 04:49:37;;;;;;;6.35;2.83;;;;;;;;;;4997414;28;20050;-48
2021/08/07 04:52:04;;;;;;;7.35;2.30;;;;;;;;;;4983400;28;20038;-52
2021/08/07 04:54:33;;;;;;;6.22;2.28;;;;;;;;;;4995414;28;20050;-50
2021/08/07 04:56:59;;;;;;;8.13;2.42;;;;;;;;;;4985154;28;20042;-51
2021/08/07 04:59:25;;;;;;;8.15;2.78;;;;;;;;;;4981910;28;20046;-50
2021/08/07 05:01:52;;;;;;;8.73;2.58;;;;;;;;;;4984432;28;20058;-48
2021/08/07 05:04:18;;;;;;;6.55;2.53;;;;;;;;;;4984649;28;20049;-50
2021/08/07 05:06:45;;;;;;;8.73;2.78;;;;;;;;;;4996422;28;20042;-53
2021/08/07 05:09:11;;;;;;;7.13;2.55;;;;;;;;;;4985403;28;20039;-50
2021/08/07 05:11:39;;;;;;;9.48;3.90;;;;;;;;;;4979781;28;20136;-47
2021/08/07 05:14:06;;;;;;;9.63;3.73;;;;;;;;;;4983904;28;20055;-51
2021/08/07 05:16:32;;;;;;;13.30;3.78;;;;;;;;;;4987086;28;20050;-49
2021/08/07 05:18:58;;;;;;;8.77;3.97;;;;;;;;;;5003834;28;20034;-49
2021/08/07 05:21:26;;;;;;;11.13;3.83;;;;;;;;;;4989830;28;20082;-48
2021/08/07 05:23:54;;;;;;;9.27;3.70;;;;;;;;;;4983774;28;20052;-50
2021/08/07 05:26:20;;;;;;;9.13;3.92;;;;;;;;;;4979808;28;20050;-49
2021/08/07 05:29:00;;;;;;;9.95;3.65;;;;;;;;;;4984851;28;20067;-49
2021/08/07 05:31:26;;;;;;;10.73;2.72;;;;;;;;;;4987459;28;20046;-51
2021/08/07 05:33:53;;;;;;;12.65;2.78;;;;;;;;;;5001886;28;20053;-48
2021/08/07 05:36:19;;;;;;;6.75;2.30;;;;;;;;;;4991028;28;20133;-50
2021/08/07 05:38:46;;;;;;;13.73;2.30;;;;;;;;;;4964760;28;20031;-47
2021/08/07 05:41:12;;;;;;;8.85;2.15;;;;;;;;;;4981760;28;20102;-46
2021/08/07 05:43:39;;;;;;;7.35;1.85;;;;;;;;;;4984624;28;20067;-47
2021/08/07 05:46:07;;;;;;;6.32;1.77;;;;;;;;;;4983548;28;20050;-47
2021/08/07 05:48:34;;;;;;;5.78;1.77;;;;;;;;;;5001539;28;20053;-49
2021/08/07 05:51:00;;;;;;;5.00;2.22;;;;;;;;;;5003776;28;20042;-52
2021/08/07 05:53:27;;;;;;;8.02;2.63;;;;;;;;;;4981816;28;20054;-48
2021/08/07 05:55:54;;;;;;;11.18;3.28;;;;;;;;;;4983558;28;20136;-53
2021/08/07 05:58:24;;;;;;;14.00;3.00;;;;;;;;;;4981199;28;20063;-51
2021/08/07 06:00:52;;;;;;;10.35;2.75;;;;;;;;;;4984827;28;20063;-52
2021/08/07 06:03:20;;;;;;;12.52;3.20;;;;;;;;;;4992556;28;20053;-52
2021/08/07 06:05:47;;;;;;;6.00;2.15;;;;;;;;;;5002117;28;20038;-49
2021/08/07 06:08:13;;;;;;;5.10;2.45;;;;;;;;;;4988009;28;20470;-47
2021/08/07 06:10:39;;;;;;;11.82;2.88;;;;;;;;;;4983452;28;20058;-48
2021/08/07 06:13:07;;;;;;;6.07;2.35;;;;;;;;;;4997562;28;20116;-50
2021/08/07 06:15:34;;;;;;;8.40;2.28;;;;;;;;;;5002053;28;20127;-48
2021/08/07 06:18:00;;;;;;;6.68;2.17;;;;;;;;;;4995614;28;20097;-48
2021/08/07 06:20:28;;;;;;;14.13;2.88;;;;;;;;;;4999458;28;20030;-47
2021/08/07 06:22:56;;;;;;;7.25;2.50;;;;;;;;;;4995331;28;20117;-51
2021/08/07 06:25:22;;;;;;;11.02;2.70;;;;;;;;;;4982671;28;20050;-51
2021/08/07 06:27:53;;;;;;;7.90;2.10;;;;;;;;;;4976992;28;20047;-52
2021/08/07 06:30:19;;;;;;;6.07;2.10;;;;;;;;;;4996478;28;20087;-52
2021/08/07 06:32:46;;;;;;;7.28;1.85;;;;;;;;;;4980155;28;20038;-52
2021/08/07 06:35:12;;;;;;;5.63;1.92;;;;;;;;;;4974549;28;20054;-51
2021/08/07 06:37:40;;;;;;;6.82;1.70;;;;;;;;;;4982491;28;20055;-49
2021/08/07 06:40:07;;;;;;;7.00;1.90;;;;;;;;;;4994677;28;20054;-47
2021/08/07 06:42:34;;;;;;;4.85;1.50;;;;;;;;;;4981257;28;20034;-48
2021/08/07 06:45:00;;;;;;;10.65;1.88;;;;;;;;;;4979676;28;20058;-50
2021/08/07 06:47:27;;;;;;;5.78;1.33;;;;;;;;;;4983369;28;20089;-50
2021/08/07 06:49:53;;;;;;;5.97;1.33;;;;;;;;;;4980270;28;20038;-52
2021/08/07 06:52:20;;;;;;;5.28;1.30;;;;;;;;;;4974940;28;20039;-52
2021/08/07 06:54:52;;;;;;;4.97;1.55;;;;;;;;;;4977135;28;20066;-51
2021/08/07 06:57:19;;;;;;;5.00;1.70;;;;;;;;;;4976001;28;20102;-48
2021/08/07 06:59:46;;;;;;;6.03;1.42;;;;;;;;;;4972321;28;20050;-47
2021/08/07 07:02:12;;;;;;;6.95;1.63;;;;;;;;;;4994086;28;20137;-49
2021/08/07 07:04:42;;;;;;;5.50;1.50;;;;;;;;;;4978324;28;20049;-47
2021/08/07 07:07:08;;;;;;;7.90;1.90;;;;;;;;;;4976253;28;20047;-50
2021/08/07 07:09:35;;;;;;;8.57;1.80;;;;;;;;;;4975593;28;20088;-52
2021/08/07 07:12:03;;;;;;;5.20;1.30;;;;;;;;;;4982076;28;20065;-51
2021/08/07 07:14:35;;;;;;;7.20;1.52;;;;;;;;;;4981171;28;20050;-47
2021/08/07 07:17:01;;;;;;;7.22;1.33;;;;;;;;;;4983247;28;20050;-46
2021/08/07 07:19:30;;;;;;;7.57;1.30;;;;;;;;;;4984795;28;20051;-48
2021/08/07 07:21:56;;;;;;;5.93;1.25;;;;;;;;;;4979749;28;20053;-51
2021/08/07 07:24:23;;;;;;;6.97;1.35;;;;;;;;;;4981676;28;20047;-50
2021/08/07 07:26:49;;;;;;;5.93;1.30;;;;;;;;;;4979407;28;20051;-52
2021/08/07 07:29:17;;;;;;;8.05;0.95;;;;;;;;;;4984374;28;20042;-48
2021/08/07 07:31:44;;;;;;;10.73;1.30;;;;;;;;;;4973973;28;20042;-48
2021/08/07 07:34:10;;;;;;;9.60;1.42;;;;;;;;;;4974730;28;20058;-48
2021/08/07 07:36:36;;;;;;;9.68;1.42;;;;;;;;;;4982710;28;20035;-48
2021/08/07 07:39:03;;;;;;;5.00;1.15;;;;;;;;;;5020993;28;20034;-48
2021/08/07 07:41:30;;;;;;;6.25;1.20;;;;;;;;;;4994994;28;20035;-47
2021/08/07 07:43:56;;;;;;;6.13;1.40;;;;;;;;;;5004150;28;20054;-47
2021/08/07 07:46:24;;;;;;;5.45;1.60;;;;;;;;;;5011431;28;20039;-51
2021/08/07 07:48:51;;;;;;;6.10;1.30;;;;;;;;;;5001579;28;20031;-50
2021/08/07 07:51:17;;;;;;;7.05;1.52;;;;;;;;;;4983037;28;20398;-51
2021/08/07 07:53:44;;;;;;;4.45;1.25;;;;;;;;;;4984215;28;20142;-51
2021/08/07 07:56:10;;;;;;;5.45;1.20;;;;;;;;;;4982173;28;20039;-50
2021/08/07 07:58:36;;;;;;;10.38;1.33;;;;;;;;;;4983223;28;20062;-51
2021/08/07 08:01:03;;;;;;;3.70;1.30;;;;;;;;;;4984802;28;20038;-47
2021/08/07 08:03:31;;;;;;;7.47;1.60;;;;;;;;;;4978063;28;20035;-49
2021/08/07 08:05:58;;;;;;;11.45;1.30;;;;;;;;;;4981828;28;20075;-51
2021/08/07 08:08:24;;;;;;;8.13;1.35;;;;;;;;;;4981350;28;20039;-49
2021/08/07 08:10:51;;;;;;;6.10;1.45;;;;;;;;;;4982010;28;20061;-51
2021/08/07 08:13:19;;;;;;;8.57;1.50;;;;;;;;;;4979358;28;20035;-48
2021/08/07 08:15:46;;;;;;;9.70;1.50;;;;;;;;;;4981440;28;20070;-52
2021/08/07 08:18:12;;;;;;;5.57;1.70;;;;;;;;;;4973783;28;20043;-51
2021/08/07 08:20:41;;;;;;;4.00;1.38;;;;;;;;;;4978499;28;20042;-50
2021/08/07 08:23:07;;;;;;;3.95;1.33;;;;;;;;;;4977163;28;20043;-48
2021/08/07 08:25:34;;;;;;;6.45;1.60;;;;;;;;;;4976377;28;20066;-47
2021/08/07 08:28:00;;;;;;;5.13;1.40;;;;;;;;;;4978762;28;20130;-49
2021/08/07 08:30:27;;;;;;;4.32;1.40;;;;;;;;;;4998295;28;20042;-49
2021/08/07 08:32:54;;;;;;;4.32;1.33;;;;;;;;;;4987629;28;20078;-49
2021/08/07 08:35:20;;;;;;;3.88;1.30;;;;;;;;;;4980146;28;20054;-50
2021/08/07 08:37:48;;;;;;;6.05;1.48;;;;;;;;;;4995380;28;20049;-50
2021/08/07 08:40:15;;;;;;;3.55;1.33;;;;;;;;;;4983354;28;20061;-49
2021/08/07 08:42:42;;;;;;;4.72;1.25;;;;;;;;;;4973559;28;20062;-48
2021/08/07 08:45:09;;;;;;;4.38;0.95;;;;;;;;;;4979035;28;20116;-47
2021/08/07 08:47:36;;;;;;;7.32;1.15;;;;;;;;;;4980764;28;20047;-48
2021/08/07 08:50:03;;;;;;;3.40;1.00;;;;;;;;;;4979820;28;20070;-54
2021/08/07 08:52:29;;;;;;;4.88;0.93;;;;;;;;;;4991483;28;20053;-51
2021/08/07 08:54:58;;;;;;;7.45;1.05;;;;;;;;;;4976505;28;20043;-52
2021/08/07 08:57:27;;;;;;;4.63;1.00;;;;;;;;;;4982007;28;20031;-52
2021/08/07 08:59:55;;;;;;;4.82;0.77;;;;;;;;;;4978799;28;20039;-51
2021/08/07 09:02:21;;;;;;;6.63;1.10;;;;;;;;;;4982399;28;20035;-51
2021/08/07 09:04:48;;;;;;;7.35;1.10;;;;;;;;;;4978609;28;20050;-46
2021/08/07 09:07:15;;;;;;;6.43;1.70;;;;;;;;;;4991131;28;20065;-48
2021/08/07 09:09:42;;;;;;;3.05;0.98;;;;;;;;;;4976499;28;20041;-49
2021/08/07 09:12:10;;;;;;;2.55;1.00;;;;;;;;;;4995820;28;20054;-51
2021/08/07 09:14:38;;;;;;;12.80;1.33;;;;;;;;;;4979475;28;20054;-53
2021/08/07 09:17:09;;;;;;;4.43;1.40;;;;;;;;;;4998290;28;20047;-47
2021/08/07 09:19:50;;;;;;;5.90;1.33;;;;;;;;;;4996619;28;20055;-49
2021/08/07 09:22:18;;;;;;;8.98;1.40;;;;;;;;;;4986455;28;20102;-48
2021/08/07 09:24:55;;;;;;;8.15;1.58;;;;;;;;;;4976985;28;20059;-47
2021/08/07 09:27:29;;;;;;;2.22;1.10;;;;;;;;;;4980360;28;20047;-52
2021/08/07 09:29:55;;;;;;;3.88;1.27;;;;;;;;;;4994698;28;20054;-50
2021/08/07 09:32:22;;;;;;;5.85;1.38;;;;;;;;;;4975917;28;20039;-50
2021/08/07 09:35:03;;;;;;;7.05;1.13;;;;;;;;;;4996205;28;20125;-52
2021/08/07 09:37:30;;;;;;;6.75;1.38;;;;;;;;;;4979313;28;20050;-47
2021/08/07 09:39:59;;;;;;;7.13;1.30;;;;;;;;;;4979862;28;20051;-52
2021/08/07 09:42:27;;;;;;;2.13;1.20;;;;;;;;;;4994955;28;20051;-53
2021/08/07 09:45:01;;;;;;;4.70;1.35;;;;;;;;;;4978027;28;20042;-51
2021/08/07 09:47:27;;;;;;;3.65;1.15;;;;;;;;;;4978789;28;20050;-49
2021/08/07 09:49:54;;;;;;;5.93;1.30;;;;;;;;;;4979080;28;20129;-50
2021/08/07 09:52:20;;;;;;;4.45;1.40;;;;;;;;;;4979388;28;20054;-48
2021/08/07 09:54:47;;;;;;;4.22;1.42;;;;;;;;;;4980120;28;20112;-50
2021/08/07 09:57:24;;;;;;;4.25;1.42;;;;;;;;;;4977663;28;20067;-52
2021/08/07 09:59:50;;;;;;;4.05;1.40;;;;;;;;;;4979939;28;20042;-49
2021/08/07 10:02:23;;;;;;;4.00;1.45;;;;;;;;;;4992771;28;20063;-51
2021/08/07 10:04:50;;;;;;;2.80;1.40;;;;;;;;;;4982578;28;20031;-49
2021/08/07 10:07:16;;;;;;;3.47;1.40;;;;;;;;;;4980699;28;20124;-52
2021/08/07 10:09:43;;;;;;;7.65;1.58;;;;;;;;;;4980702;28;20054;-53
2021/08/07 10:12:10;;;;;;;6.60;1.63;;;;;;;;;;4992010;28;20156;-50
2021/08/07 10:14:37;;;;;;;4.90;1.58;;;;;;;;;;4979554;28;20085;-53
2021/08/07 10:17:05;;;;;;;4.95;1.33;;;;;;;;;;4977526;28;20058;-53
2021/08/07 10:19:34;;;;;;;5.22;1.20;;;;;;;;;;4996682;28;20147;-48
2021/08/07 10:22:01;;;;;;;12.88;1.83;;;;;;;;;;4977302;28;20039;-51
2021/08/07 10:24:29;;;;;;;4.93;1.20;;;;;;;;;;4997086;28;20067;-45
2021/08/07 10:26:58;;;;;;;7.32;1.35;;;;;;;;;;4983692;28;20089;-52
2021/08/07 10:29:26;;;;;;;4.35;1.05;;;;;;;;;;4969877;28;20105;-52
2021/08/07 10:31:53;;;;;;;4.70;1.40;;;;;;;;;;4995839;28;20049;-49
2021/08/07 10:34:22;;;;;;;3.60;1.20;;;;;;;;;;4973456;28;20066;-51
2021/08/07 10:36:50;;;;;;;3.58;1.40;;;;;;;;;;4996890;28;20058;-50
2021/08/07 10:39:17;;;;;;;5.15;1.67;;;;;;;;;;4978446;28;20042;-49
2021/08/07 10:41:44;;;;;;;5.38;1.20;;;;;;;;;;4983334;28;20053;-50
2021/08/07 10:44:11;;;;;;;7.60;1.35;;;;;;;;;;4986527;28;20105;-51
2021/08/07 10:46:38;;;;;;;3.20;0.73;;;;;;;;;;4978868;28;20057;-51
2021/08/07 10:49:05;;;;;;;9.40;1.27;;;;;;;;;;4983069;28;20061;-49
2021/08/07 10:51:36;;;;;;;3.83;1.17;;;;;;;;;;4998673;28;20091;-47
2021/08/07 10:54:05;;;;;;;14.80;4.07;;;;;;;;;;4978022;28;20043;-48
2021/08/07 10:56:41;;;;;;;6.25;1.50;;;;;;;;;;4972870;28;20055;-52
2021/08/07 10:59:17;;;;;;;11.57;1.25;;;;;;;;;;4989972;28;20038;-51
2021/08/07 11:01:44;;;;;;;4.43;1.10;;;;;;;;;;4978909;28;20035;-51
2021/08/07 11:04:15;;;;;;;6.85;1.10;;;;;;;;;;4993601;28;20043;-50
2021/08/07 11:06:46;;;;;;;4.68;1.05;;;;;;;;;;4978155;28;20038;-51
2021/08/07 11:09:18;;;;;;;2.95;0.93;;;;;;;;;;4990794;28;20042;-50
2021/08/07 11:11:45;;;;;;;5.47;0.93;;;;;;;;;;4978866;28;20041;-51
2021/08/07 11:14:47;;;;;;;3.60;1.10;;;;;;;;;;4971382;28;20046;-52
2021/08/07 11:17:48;;;;;;;9.75;1.20;;;;;;;;;;4938745;28;20044;-53
2021/08/07 11:20:31;;;;;;;6.13;1.38;;;;;;;;;;4923955;28;20032;-50
2021/08/07 11:23:16;;;;;;;4.75;0.95;;;;;;;;;;4983058;28;20050;-51
2021/08/07 11:25:54;;;;;;;1.77;0.80;;;;;;;;;;4976704;28;20091;-51
2021/08/07 11:28:21;;;;;;;3.97;1.00;;;;;;;;;;4978674;28;20038;-51
2021/08/07 11:30:48;;;;;;;6.95;1.00;;;;;;;;;;4975918;28;20050;-52
2021/08/07 11:33:23;;;;;;;5.93;1.13;;;;;;;;;;4979122;28;20038;-51
2021/08/07 11:36:05;;;;;;;5.10;1.17;;;;;;;;;;4975443;28;20054;-53
2021/08/07 11:38:32;;;;;;;3.28;0.95;;;;;;;;;;4996730;28;20051;-51
2021/08/07 11:41:02;;;;;;;4.65;1.00;;;;;;;;;;4976457;28;20062;-54
2021/08/07 11:43:30;;;;;;;3.50;0.93;;;;;;;;;;4975333;28;20050;-52
2021/08/07 11:45:58;;;;;;;;;;;;;;;;;;4977512;28;20129;-50
2021/08/07 11:48:26;;;;;;;3.13;0.80;;;;;;;;;;4976946;28;19946;-52
2021/08/07 11:50:55;;;;;;;6.40;0.90;;;;;;;;;;4973971;28;20103;-50
2021/08/07 11:53:23;;;;;;;5.15;1.00;;;;;;;;;;4978708;28;20055;-53
2021/08/07 11:55:56;;;;;;;6.03;1.20;;;;;;;;;;4976716;28;20047;-52
2021/08/07 11:58:26;;;;;;;4.50;0.90;;;;;;;;;;4981742;28;20046;-49
2021/08/07 12:00:56;;;;;;;5.35;1.10;;;;;;;;;;4976632;28;20043;-50
2021/08/07 12:03:23;;;;;;;8.90;1.00;;;;;;;;;;4978986;28;20043;-51
2021/08/07 12:05:50;;;;;;;2.35;0.80;;;;;;;;;;4981750;28;20128;-53
2021/08/07 12:08:17;;;;;;;5.03;0.90;;;;;;;;;;4978601;28;20055;-48
2021/08/07 12:10:49;;;;;;;5.97;1.10;;;;;;;;;;4978412;28;20049;-49
2021/08/07 12:13:23;;;;;;;10.68;1.00;;;;;;;;;;4978294;28;20051;-53
2021/08/07 12:15:58;;;;;;;8.10;1.10;;;;;;;;;;4991231;28;20074;-52
2021/08/07 12:18:25;;;;;;;5.95;0.88;;;;;;;;;;4977660;28;20144;-53
2021/08/07 12:20:52;;;;;;;6.30;0.80;;;;;;;;;;4998223;28;20052;-48
2021/08/07 12:23:19;;;;;;;1.85;0.77;;;;;;;;;;4975205;28;20061;-49
2021/08/07 12:25:46;;;;;;;6.00;0.87;;;;;;;;;;4984127;28;20038;-54
2021/08/07 12:28:14;;;;;;;3.38;0.88;;;;;;;;;;4979862;28;20288;-54
2021/08/07 12:31:01;;;;;;;3.13;0.60;;;;;;;;;;4997583;28;20042;-53
2021/08/07 12:33:29;;;;;;;4.57;0.93;;;;;;;;;;4967260;28;20328;-51
2021/08/07 12:35:55;;;;;;;3.88;1.05;;;;;;;;;;4963084;28;20043;-52
2021/08/07 12:38:23;;;;;;;3.35;0.80;;;;;;;;;;4946990;28;20058;-48
2021/08/07 12:40:50;;;;;;;2.53;0.75;;;;;;;;;;4971775;28;20055;-53
2021/08/07 12:43:17;;;;;;;3.03;0.70;;;;;;;;;;4956825;28;20070;-50
2021/08/07 12:45:44;;;;;;;3.75;0.93;;;;;;;;;;4972627;28;20039;-52
2021/08/07 12:48:12;;;;;;;1.85;1.00;;;;;;;;;;4946983;28;20050;-52
2021/08/07 12:50:38;;;;;;;9.18;2.10;;;;;;;;;;4978220;28;20042;-51
2021/08/07 12:53:06;;;;;;;12.77;2.95;;;;;;;;;;4972232;28;20042;-52
2021/08/07 12:55:33;;;;;;;5.93;1.37;;;;;;;;;;4977023;28;20049;-50
2021/08/07 12:58:09;;;;;;;2.53;0.90;;;;;;;;;;4959256;28;20054;-52
2021/08/07 13:00:36;;;;;;;6.60;1.17;;;;;;;;;;4984724;28;20035;-51
2021/08/07 13:03:06;;;;;;;2.70;0.88;;;;;;;;;;4958654;28;20057;-51
2021/08/07 13:05:34;;;;;;;3.60;0.95;;;;;;;;;;4982711;28;20065;-52
2021/08/07 13:08:00;;;;;;;5.57;1.02;;;;;;;;;;4981049;28;20117;-51
2021/08/07 13:10:31;;;;;;;2.78;0.80;;;;;;;;;;4960928;28;20065;-49
2021/08/07 13:12:58;;;;;;;8.18;1.10;;;;;;;;;;4960050;28;20030;-52
2021/08/07 13:15:25;;;;;;;4.70;0.90;;;;;;;;;;4976949;28;20062;-50
2021/08/07 13:17:53;;;;;;;7.75;1.10;;;;;;;;;;4983796;28;20051;-52
2021/08/07 13:20:34;;;;;;;3.47;0.90;;;;;;;;;;4975694;28;20043;-51
2021/08/07 13:23:03;;;;;;;2.45;1.00;;;;;;;;;;4978808;28;20042;-52
2021/08/07 13:25:29;;;;;;;2.88;0.75;;;;;;;;;;4978114;28;20057;-52
2021/08/07 13:27:56;;;;;;;3.47;0.75;;;;;;;;;;4982236;28;20034;-51
2021/08/07 13:30:23;;;;;;;5.35;0.88;;;;;;;;;;4977414;28;20047;-52
2021/08/07 13:33:00;;;;;;;3.13;0.80;;;;;;;;;;4980247;28;20133;-52
2021/08/07 13:35:26;;;;;;;4.40;0.82;;;;;;;;;;4958337;28;20125;-49
2021/08/07 13:37:52;;;;;;;2.30;0.75;;;;;;;;;;4981382;28;20043;-50
2021/08/07 13:40:23;;;;;;;5.40;1.10;;;;;;;;;;4976484;28;20060;-50
2021/08/07 13:42:50;;;;;;;5.40;1.10;;;;;;;;;;4978808;28;20051;-52
2021/08/07 13:45:16;;;;;;;3.78;1.00;;;;;;;;;;4976835;28;20113;-53
2021/08/07 13:47:43;;;;;;;5.25;1.05;;;;;;;;;;4979117;28;20152;-52
2021/08/07 13:50:10;;;;;;;5.40;1.02;;;;;;;;;;4970967;28;20054;-50
2021/08/07 13:52:37;;;;;;;5.60;1.10;;;;;;;;;;4976942;28;20058;-52
2021/08/07 13:55:03;;;;;;;3.85;0.75;;;;;;;;;;4980679;28;20124;-50
2021/08/07 13:57:31;;;;;;;6.13;0.70;;;;;;;;;;4957484;28;20039;-51
2021/08/07 13:59:58;;;;;;;3.80;0.70;;;;;;;;;;4965079;28;20047;-51
2021/08/07 14:02:26;;;;;;;2.00;0.90;;;;;;;;;;4958486;28;20058;-49
2021/08/07 14:04:52;;;;;;;8.85;1.35;;;;;;;;;;4975602;28;20038;-51
2021/08/07 14:07:18;;;;;;;4.07;0.68;;;;;;;;;;4975722;28;20039;-53
2021/08/07 14:09:45;;;;;;;6.28;1.00;;;;;;;;;;4975345;28;20054;-51
2021/08/07 14:12:14;;;;;;;3.35;0.80;;;;;;;;;;4961708;28;20042;-51
2021/08/07 14:14:41;;;;;;;3.03;0.77;;;;;;;;;;4979856;28;20049;-52
2021/08/07 14:17:08;;;;;;;2.90;0.85;;;;;;;;;;4973466;28;20066;-53
2021/08/07 14:19:34;;;;;;;6.32;1.08;;;;;;;;;;4983529;28;20055;-53
2021/08/07 14:22:01;;;;;;;4.90;1.33;;;;;;;;;;4959361;28;20049;-52
2021/08/07 14:24:27;;;;;;;4.55;1.00;;;;;;;;;;4967808;28;20035;-52
2021/08/07 14:26:54;;;;;;;3.35;0.93;;;;;;;;;;4969451;28;20038;-50
2021/08/07 14:29:21;;;;;;;4.18;0.98;;;;;;;;;;4979781;28;20146;-52
2021/08/07 14:31:49;;;;;;;2.95;0.75;;;;;;;;;;4979966;28;20034;-49
2021/08/07 14:34:16;;;;;;;2.47;0.80;;;;;;;;;;4984128;28;20039;-52
2021/08/07 14:36:43;;;;;;;2.78;0.80;;;;;;;;;;4980495;28;20046;-52
2021/08/07 14:39:10;;;;;;;3.30;0.80;;;;;;;;;;4977385;28;20090;-52
2021/08/07 14:41:36;;;;;;;7.45;0.98;;;;;;;;;;4982789;28;20075;-54
2021/08/07 14:44:03;;;;;;;3.83;0.88;;;;;;;;;;4978996;28;20070;-50
2021/08/07 14:46:29;;;;;;;3.42;0.75;;;;;;;;;;4983376;28;20046;-51
2021/08/07 14:48:57;;;;;;;6.35;0.85;;;;;;;;;;4979411;28;20051;-50